Time;durP1;ratioP1;P1;durP2;ratioP2;P2;SDS_P1;SDS_P2;PMS_P1;PMS_P2;Temp;Humidity;BMP_temperature;BMP_pressure;BME280_temperature;BME280_humidity;BME280_pressure;Samples;Min_cycle;Max_cycle;Signal;HPM_P1;HPM_P2
2021/06/29 00:01:03;;;;;;;38.10;34.20;;;;;;;19.07;100.00;101183.69;5199794;28;20025;-67
2021/06/29 00:03:34;;;;;;;37.50;33.60;;;;;;;19.06;100.00;101184.69;5201793;28;20128;-68
2021/06/29 00:06:06;;;;;;;37.60;33.93;;;;;;;19.00;100.00;101188.06;5198598;28;20361;-67
2021/06/29 00:08:37;;;;;;;38.33;34.50;;;;;;;19.06;100.00;101192.66;5201530;28;20049;-68
2021/06/29 00:11:09;;;;;;;37.10;33.50;;;;;;;19.04;100.00;101197.31;5198509;28;20147;-67
2021/06/29 00:13:40;;;;;;;38.37;34.37;;;;;;;19.05;100.00;101191.00;5200286;28;20104;-68
2021/06/29 00:16:12;;;;;;;38.10;34.10;;;;;;;19.06;100.00;101187.34;5201555;28;20068;-67
2021/06/29 00:18:43;;;;;;;39.00;35.00;;;;;;;19.10;100.00;101185.16;5201067;28;20538;-68
2021/06/29 00:21:15;;;;;;;40.00;34.30;;;;;;;19.09;100.00;101175.53;5196925;28;20057;-68
2021/06/29 00:23:46;;;;;;;35.97;32.27;;;;;;;19.06;100.00;101176.72;5199098;28;20021;-68
2021/06/29 00:26:18;;;;;;;38.17;34.37;;;;;;;19.05;100.00;101175.06;5201580;28;20226;-68
2021/06/29 00:28:49;;;;;;;36.20;32.37;;;;;;;19.04;100.00;101173.41;5196779;28;20034;-68
2021/06/29 00:31:20;;;;;;;38.37;34.27;;;;;;;19.01;100.00;101175.59;5201515;28;20030;-68
2021/06/29 00:33:52;;;;;;;38.07;34.07;;;;;;;18.98;100.00;101173.28;5199160;28;20080;-68
2021/06/29 00:36:23;;;;;;;38.33;34.37;;;;;;;19.02;100.00;101170.13;5201762;28;20109;-68
2021/06/29 00:38:54;;;;;;;40.93;36.70;;;;;;;18.95;100.00;101159.38;5196800;28;20168;-68
2021/06/29 00:41:26;;;;;;;43.90;39.63;;;;;;;18.94;100.00;101147.13;5199344;28;20026;-68
2021/06/29 00:43:57;;;;;;;43.80;39.27;;;;;;;18.98;100.00;101147.59;5200338;28;20052;-68
2021/06/29 00:46:29;;;;;;;42.73;38.13;;;;;;;18.96;100.00;101142.44;5202558;28;20030;-67
2021/06/29 00:49:00;;;;;;;45.33;40.63;;;;;;;18.92;100.00;101145.63;5197882;28;20045;-68
2021/06/29 00:51:33;;;;;;;43.90;39.50;;;;;;;18.86;100.00;101135.72;5203198;28;20034;-68
2021/06/29 00:54:05;;;;;;;43.55;39.10;;;;;;;18.85;100.00;101150.00;5196853;28;20105;-68
2021/06/29 00:56:37;;;;;;;45.23;40.63;;;;;;;18.84;100.00;101149.19;5200868;28;20109;-68
2021/06/29 00:59:09;;;;;;;43.45;39.08;;;;;;;18.84;100.00;101159.78;5180482;28;20494;-68
2021/06/29 01:01:40;;;;;;;44.00;39.40;;;;;;;18.87;100.00;101161.28;5196727;28;20126;-67
2021/06/29 01:04:11;;;;;;;44.23;39.73;;;;;;;18.84;100.00;101148.34;5197671;28;20029;-68
2021/06/29 01:06:46;;;;;;;43.70;39.13;;;;;;;18.87;100.00;101150.66;5196299;28;20106;-68
2021/06/29 01:09:19;;;;;;;44.05;39.67;;;;;;;18.71;100.00;101141.81;5197431;28;20049;-68
2021/06/29 01:11:51;;;;;;;42.55;38.28;;;;;;;18.81;100.00;101156.66;5198860;28;20039;-68
2021/06/29 01:14:22;;;;;;;44.13;39.40;;;;;;;18.85;100.00;101148.16;5191371;28;20049;-68
2021/06/29 01:16:53;;;;;;;44.43;39.93;;;;;;;18.88;100.00;101142.50;5195291;28;20510;-68
2021/06/29 01:19:35;;;;;;;44.50;39.80;;;;;;;18.86;100.00;101135.72;5198349;28;20364;-68
2021/06/29 01:22:08;;;;;;;44.30;39.80;;;;;;;18.82;100.00;101134.41;5200327;28;20471;-67
2021/06/29 01:24:41;;;;;;;46.05;41.28;;;;;;;18.82;100.00;101119.31;5199384;28;20021;-67
2021/06/29 01:27:24;;;;;;;45.45;40.47;;;;;;;18.77;100.00;101111.06;5198498;28;20026;-68
2021/06/29 01:32:27;;;;;;;43.40;38.80;;;;;;;18.77;100.00;101104.94;5201215;28;20470;-68
2021/06/29 01:35:04;;;;;;;46.78;41.88;;;;;;;18.76;100.00;101113.91;5200057;28;20034;-67
2021/06/29 01:37:37;;;;;;;45.45;40.95;;;;;;;18.65;100.00;101110.63;5200071;28;20486;-67
2021/06/29 01:40:31;;;;;;;44.35;39.85;;;;;;;18.67;100.00;101107.78;5198353;28;20030;-68
2021/06/29 01:43:00;;;;;;;45.50;41.00;;;;;;;18.69;100.00;101100.47;5198560;28;20129;-68
2021/06/29 01:45:32;;;;;;;45.33;40.50;;;;;;;18.69;100.00;101106.63;5198285;28;20105;-67
2021/06/29 01:48:05;;;;;;;47.17;42.40;;;;;;;18.66;100.00;101093.69;5197335;28;20030;-68
2021/06/29 01:50:36;;;;;;;;;;;;;;;18.92;100.00;101093.34;5197969;28;20034;-67
2021/06/29 01:53:08;;;;;;;46.27;41.20;;;;;;;18.67;100.00;101097.16;5198079;28;19923;-67
2021/06/29 01:55:39;;;;;;;47.73;42.63;;;;;;;18.62;100.00;101092.38;5193784;28;20026;-67
2021/06/29 01:58:13;;;;;;;46.93;42.03;;;;;;;18.65;100.00;101102.66;5195543;28;20098;-68
2021/06/29 02:00:44;;;;;;;47.70;41.97;;;;;;;18.61;100.00;101101.38;5194011;28;20054;-68
2021/06/29 02:03:16;;;;;;;48.13;43.13;;;;;;;18.66;100.00;101101.66;5199114;28;20314;-68
2021/06/29 02:05:47;;;;;;;48.73;43.47;;;;;;;18.66;100.00;101093.69;5199757;28;20026;-67
2021/06/29 02:08:19;;;;;;;49.33;44.00;;;;;;;18.65;100.00;101085.91;5200356;28;20038;-68
2021/06/29 02:10:50;;;;;;;48.43;43.47;;;;;;;18.66;100.00;101090.22;5197014;28;20455;-68
2021/06/29 02:13:21;;;;;;;47.07;42.20;;;;;;;18.69;100.00;101093.34;5198320;28;20108;-67
2021/06/29 02:15:53;;;;;;;47.50;42.40;;;;;;;18.64;100.00;101085.09;5198335;28;20117;-67
2021/06/29 02:18:24;;;;;;;51.17;45.73;;;;;;;18.77;100.00;101075.75;5203479;28;20076;-67
2021/06/29 02:20:56;;;;;;;49.83;44.40;;;;;;;18.66;100.00;101082.25;5196303;28;20426;-67
2021/06/29 02:23:27;;;;;;;48.50;43.37;;;;;;;18.63;100.00;101086.06;5198684;28;20085;-67
2021/06/29 02:26:00;;;;;;;45.87;41.00;;;;;;;18.61;100.00;101081.97;5200553;28;20026;-67
2021/06/29 02:28:31;;;;;;;46.70;41.88;;;;;;;18.60;100.00;101075.84;5199582;28;20030;-68
2021/06/29 02:31:02;;;;;;;48.80;43.60;;;;;;;18.62;100.00;101065.84;5201266;28;20057;-67
2021/06/29 02:33:34;;;;;;;47.67;42.77;;;;;;;18.63;100.00;101066.69;5202281;28;20026;-67
2021/06/29 02:36:05;;;;;;;51.07;45.60;;;;;;;18.60;100.00;101056.41;5199737;28;20034;-68
2021/06/29 02:38:36;;;;;;;49.00;43.70;;;;;;;18.63;100.00;101064.84;5204682;28;20037;-67
2021/06/29 02:41:08;;;;;;;48.83;43.77;;;;;;;18.61;100.00;101072.19;5199795;28;20045;-68
2021/06/29 02:43:40;;;;;;;49.50;43.93;;;;;;;18.57;100.00;101078.03;5202743;28;20352;-68
2021/06/29 02:46:12;;;;;;;48.47;43.08;;;;;;;18.56;100.00;101082.50;5201753;28;20021;-68
2021/06/29 02:48:43;;;;;;;53.30;47.47;;;;;;;18.57;100.00;101089.44;5200614;28;20023;-68
2021/06/29 02:51:14;;;;;;;51.27;45.77;;;;;;;18.56;100.00;101090.47;5198492;28;20033;-68
2021/06/29 02:53:45;;;;;;;53.07;47.53;;;;;;;18.56;100.00;101101.06;5200221;28;20026;-68
2021/06/29 02:59:14;;;;;;;53.53;47.75;;;;;;;18.59;100.00;101094.56;5203126;28;20310;-68
2021/06/29 03:01:45;;;;;;;53.45;47.60;;;;;;;18.52;100.00;101097.09;5199459;28;20048;-67
2021/06/29 03:04:16;;;;;;;53.53;47.83;;;;;;;18.51;100.00;101091.97;5200376;28;20029;-68
2021/06/29 03:06:48;;;;;;;55.20;48.17;;;;;;;18.55;100.00;101091.44;5200653;28;20037;-67
2021/06/29 03:09:19;;;;;;;54.07;48.20;;;;;;;18.55;100.00;101090.63;5201154;28;20022;-67
2021/06/29 03:11:50;;;;;;;53.43;47.67;;;;;;;18.52;100.00;101083.81;5200219;28;20140;-68
2021/06/29 03:14:21;;;;;;;54.67;47.63;;;;;;;18.52;100.00;101083.81;5201093;28;20034;-68
2021/06/29 03:16:53;;;;;;;53.73;48.07;;;;;;;18.51;100.00;101074.22;5200550;28;20052;-67
2021/06/29 03:19:24;;;;;;;56.27;49.70;;;;;;;18.48;100.00;101075.41;5202840;28;20071;-68
2021/06/29 03:21:55;;;;;;;56.83;50.73;;;;;;;18.48;100.00;101083.34;5198354;28;20026;-67
2021/06/29 03:24:28;;;;;;;58.30;51.50;;;;;;;18.49;100.00;101084.22;5201043;28;20034;-68
2021/06/29 03:26:59;;;;;;;55.75;49.78;;;;;;;18.49;100.00;101086.84;5202187;28;20022;-68
2021/06/29 03:29:30;;;;;;;59.43;53.20;;;;;;;18.48;100.00;101078.03;5198737;28;20100;-67
2021/06/29 03:32:02;;;;;;;56.30;50.20;;;;;;;18.51;100.00;101090.16;5202823;28;20045;-68
2021/06/29 03:34:34;;;;;;;58.90;52.73;;;;;;;18.51;100.00;101082.19;5198849;28;20029;-67
2021/06/29 03:37:06;;;;;;;60.13;53.70;;;;;;;18.43;100.00;101066.31;5199330;28;20029;-68
2021/06/29 03:39:38;;;;;;;60.80;54.17;;;;;;;18.49;100.00;101084.22;5200059;28;20114;-67
2021/06/29 03:42:09;;;;;;;61.27;53.97;;;;;;;18.46;100.00;101076.59;5201321;28;20026;-68
2021/06/29 03:44:40;;;;;;;62.40;54.23;;;;;;;18.47;100.00;101087.03;5201276;28;20387;-68
2021/06/29 03:47:12;;;;;;;59.27;51.57;;;;;;;18.50;100.00;101091.16;5196905;28;20041;-68
2021/06/29 03:49:43;;;;;;;60.60;53.27;;;;;;;18.51;100.00;101090.16;5199981;28;20084;-67
2021/06/29 03:52:15;;;;;;;60.77;53.47;;;;;;;18.50;100.00;101085.84;5198354;28;20129;-67
2021/06/29 03:54:46;;;;;;;58.83;52.03;;;;;;;18.50;100.00;101085.84;5194431;28;20030;-68
2021/06/29 03:57:17;;;;;;;60.73;54.03;;;;;;;18.48;100.00;101085.19;5197230;28;20037;-68
2021/06/29 03:59:49;;;;;;;65.00;57.20;;;;;;;18.47;100.00;101081.72;5198738;28;20426;-67
2021/06/29 04:02:20;;;;;;;64.80;54.63;;;;;;;18.48;100.00;101080.69;5202599;28;20087;-68
2021/06/29 04:04:51;;;;;;;66.97;56.93;;;;;;;18.43;100.00;101080.41;5201050;28;20026;-67
2021/06/29 04:07:24;;;;;;;62.70;55.73;;;;;;;18.51;100.00;101086.66;5200307;28;20096;-67
2021/06/29 04:09:56;;;;;;;61.33;54.00;;;;;;;18.48;100.00;101085.19;5201928;28;20022;-68
2021/06/29 04:12:27;;;;;;;63.43;54.47;;;;;;;18.50;100.00;101088.50;5199588;28;20326;-68
2021/06/29 04:14:58;;;;;;;60.67;52.57;;;;;;;18.49;100.00;101084.22;5199343;28;20494;-68
2021/06/29 04:17:31;;;;;;;60.43;53.47;;;;;;;18.51;100.00;101079.53;5200181;28;20120;-67
2021/06/29 04:20:05;;;;;;;60.70;53.72;;;;;;;18.52;100.00;101083.81;5198044;28;20068;-67
2021/06/29 04:22:37;;;;;;;60.97;53.60;;;;;;;18.49;100.00;101078.91;5199822;28;20096;-67
2021/06/29 04:25:09;;;;;;;;;;;;;;;18.75;100.00;101077.72;5199920;28;20030;-68
2021/06/29 04:27:40;;;;;;;58.00;51.60;;;;;;;18.53;100.00;101090.00;5199132;28;20425;-67
2021/06/29 04:30:13;;;;;;;57.10;50.93;;;;;;;18.52;100.00;101090.97;5202663;28;20033;-67
2021/06/29 04:32:44;;;;;;;55.75;49.65;;;;;;;18.52;100.00;101094.44;5200676;28;20036;-67
2021/06/29 04:35:16;;;;;;;59.57;52.87;;;;;;;18.55;100.00;101091.44;5201776;28;20023;-67
2021/06/29 04:37:47;;;;;;;58.07;51.90;;;;;;;18.53;100.00;101093.47;5197717;28;20040;-67
2021/06/29 04:40:18;;;;;;;61.50;54.73;;;;;;;18.51;100.00;101090.16;5197926;28;20037;-67
2021/06/29 04:42:49;;;;;;;62.67;55.13;;;;;;;18.51;100.00;101090.16;5197862;28;20482;-67
2021/06/29 04:45:22;;;;;;;63.77;56.00;;;;;;;18.52;100.00;101088.31;5201170;28;20021;-67
2021/06/29 04:47:55;;;;;;;;;;;;;;;18.75;100.00;101073.25;5199332;28;20399;-67
2021/06/29 04:50:26;;;;;;;60.90;52.70;;;;;;;18.54;100.00;101076.53;5200618;28;19914;-67
2021/06/29 04:52:58;;;;;;;65.83;56.20;;;;;;;18.59;100.00;101074.16;5197678;28;20103;-67
2021/06/29 04:55:33;;;;;;;63.10;55.90;;;;;;;18.60;100.00;101072.34;5200430;28;20038;-67
2021/06/29 04:58:04;;;;;;;67.05;57.72;;;;;;;18.57;100.00;101078.84;5202362;28;20069;-67
2021/06/29 05:00:38;;;;;;;66.37;58.23;;;;;;;18.58;100.00;101069.88;5196004;28;20030;-67
2021/06/29 05:03:09;;;;;;;69.03;59.28;;;;;;;18.57;100.00;101073.53;5196797;28;20029;-68
2021/06/29 05:05:41;;;;;;;70.60;59.53;;;;;;;18.53;100.00;101064.28;5198768;28;20395;-67
2021/06/29 05:08:13;;;;;;;67.80;60.30;;;;;;;18.60;100.00;101077.63;5198955;28;20033;-67
2021/06/29 05:10:44;;;;;;;71.90;61.40;;;;;;;18.62;100.00;101076.47;5199214;28;20105;-67
2021/06/29 05:13:15;;;;;;;69.03;60.20;;;;;;;18.61;100.00;101076.66;5200592;28;20423;-67
2021/06/29 05:15:47;;;;;;;71.70;62.47;;;;;;;18.63;100.00;101082.59;5199508;28;20022;-67
2021/06/29 05:18:18;;;;;;;76.60;65.63;;;;;;;18.59;100.00;101079.47;5198670;28;20069;-67
2021/06/29 05:20:49;;;;;;;75.07;61.90;;;;;;;18.64;100.00;101087.75;5198817;28;20033;-67
2021/06/29 05:23:21;;;;;;;72.57;63.73;;;;;;;18.63;100.00;101088.72;5185367;28;20037;-67
2021/06/29 05:25:53;;;;;;;74.35;62.80;;;;;;;18.66;100.00;101091.03;5199549;28;20077;-67
2021/06/29 05:28:24;;;;;;;80.47;64.27;;;;;;;18.70;100.00;101107.44;5198513;28;20105;-67
2021/06/29 05:30:56;;;;;;;79.00;65.50;;;;;;;18.68;100.00;101107.63;5200095;28;20045;-67
2021/06/29 05:33:27;;;;;;;86.20;67.33;;;;;;;18.66;100.00;101112.25;5198653;28;20108;-67
2021/06/29 05:35:58;;;;;;;78.63;65.93;;;;;;;18.65;100.00;101107.97;5201298;28;20048;-67
2021/06/29 05:38:30;;;;;;;80.03;66.80;;;;;;;18.69;100.00;101111.91;5201179;28;20017;-67
2021/06/29 05:41:01;;;;;;;77.00;66.43;;;;;;;18.70;100.00;101116.25;5204551;28;20024;-67
2021/06/29 05:43:33;;;;;;;82.43;68.57;;;;;;;18.66;100.00;101116.75;5199028;28;20026;-67
2021/06/29 05:46:04;;;;;;;86.93;68.83;;;;;;;18.64;100.00;101110.81;5199158;28;20064;-67
2021/06/29 05:48:35;;;;;;;96.53;73.33;;;;;;;18.59;100.00;101113.16;5203102;28;20495;-67
2021/06/29 05:51:07;;;;;;;92.17;74.20;;;;;;;18.55;100.00;101109.19;5197707;28;20430;-67
2021/06/29 05:53:38;;;;;;;108.07;84.07;;;;;;;18.52;100.00;101113.00;5199313;28;20038;-68
2021/06/29 05:56:11;;;;;;;107.17;81.00;;;;;;;18.50;100.00;101109.72;5202725;28;20469;-67
2021/06/29 05:58:42;;;;;;;107.40;81.88;;;;;;;18.50;100.00;101119.53;5200823;28;20045;-67
2021/06/29 06:01:13;;;;;;;108.57;83.33;;;;;;;18.44;100.00;101113.88;5197653;28;20026;-68
2021/06/29 06:03:45;;;;;;;111.23;83.00;;;;;;;18.43;100.00;101114.91;5196017;28;20030;-68
2021/06/29 06:06:16;;;;;;;115.53;86.17;;;;;;;18.37;100.00;101110.31;5198608;28;20028;-68
2021/06/29 06:08:47;;;;;;;111.53;84.67;;;;;;;18.40;100.00;101117.91;5186540;28;20030;-68
2021/06/29 06:11:18;;;;;;;116.43;85.30;;;;;;;18.45;100.00;101120.88;5203914;28;20053;-68
2021/06/29 06:13:50;;;;;;;118.80;86.27;;;;;;;18.42;100.00;101113.25;5202051;28;20046;-68
2021/06/29 06:16:21;;;;;;;111.43;84.00;;;;;;;18.48;100.00;101117.84;5192841;28;20133;-67
2021/06/29 06:18:52;;;;;;;114.90;86.57;;;;;;;18.53;100.00;101120.00;5197554;28;20033;-68
2021/06/29 06:21:24;;;;;;;120.77;85.57;;;;;;;18.55;100.00;101117.97;5201518;28;20495;-68
2021/06/29 06:23:55;;;;;;;118.67;87.20;;;;;;;18.57;100.00;101108.03;5202215;28;20022;-69
2021/06/29 06:26:26;;;;;;;118.03;88.03;;;;;;;18.66;100.00;101111.44;5201085;28;20022;-68
2021/06/29 06:28:57;;;;;;;119.33;89.13;;;;;;;18.68;100.00;101112.94;5202440;28;20659;-68
2021/06/29 06:31:30;;;;;;;120.83;88.33;;;;;;;18.68;100.00;101098.84;5207178;28;20030;-68
2021/06/29 06:34:01;;;;;;;119.07;88.45;;;;;;;18.68;100.00;101102.31;5205132;28;20025;-68
2021/06/29 06:36:33;;;;;;;127.67;90.60;;;;;;;18.74;100.00;101105.28;5201433;28;20395;-68
2021/06/29 06:39:04;;;;;;;122.77;87.80;;;;;;;18.72;100.00;101102.81;5194468;28;20298;-68
2021/06/29 06:41:36;;;;;;;134.47;94.50;;;;;;;18.70;100.00;101107.44;5205564;28;20042;-68
2021/06/29 06:44:07;;;;;;;132.37;91.70;;;;;;;18.77;100.00;101108.41;5201278;28;20013;-68
2021/06/29 06:46:38;;;;;;;133.23;90.27;;;;;;;18.85;100.00;101099.56;5201393;28;20034;-68
2021/06/29 06:49:10;;;;;;;139.33;94.30;;;;;;;18.88;100.00;101099.22;5199038;28;20030;-68
2021/06/29 06:51:41;;;;;;;132.77;92.70;;;;;;;18.90;100.00;101103.34;5195415;28;20096;-68
2021/06/29 06:54:13;;;;;;;134.57;93.17;;;;;;;18.96;100.00;101099.97;5199055;28;20496;-68
2021/06/29 06:56:44;;;;;;;138.47;94.97;;;;;;;18.97;100.00;101098.13;5199546;28;20112;-68
2021/06/29 06:59:15;;;;;;;135.30;92.37;;;;;;;19.05;100.00;101103.38;5200714;28;20057;-68
2021/06/29 07:01:47;;;;;;;142.17;93.33;;;;;;;19.12;100.00;101101.63;5195634;28;20037;-68
2021/06/29 07:04:19;;;;;;;136.57;93.03;;;;;;;19.20;100.00;101103.41;5198812;28;20066;-68
2021/06/29 07:06:51;;;;;;;137.48;91.18;;;;;;;19.26;100.00;101107.19;5197912;28;20038;-68
2021/06/29 07:09:22;;;;;;;136.13;92.20;;;;;;;19.27;100.00;101111.47;5198250;28;20398;-68
2021/06/29 07:11:54;;;;;;;130.67;86.10;;;;;;;19.37;100.00;101110.22;5203372;28;20579;-68
2021/06/29 07:14:26;;;;;;;134.27;84.97;;;;;;;19.43;100.00;101106.84;5190973;28;20106;-68
2021/06/29 07:16:57;;;;;;;113.50;76.83;;;;;;;19.60;100.00;101119.97;5202123;28;20041;-68
2021/06/29 07:19:28;;;;;;;113.43;74.30;;;;;;;19.62;100.00;101109.97;5201102;28;20284;-68
2021/06/29 07:21:59;;;;;;;111.83;73.07;;;;;;;19.78;100.00;101106.34;5180289;28;20870;-68
2021/06/29 07:24:31;;;;;;;100.33;65.80;;;;;;;19.77;100.00;101113.47;5197787;28;20041;-68
2021/06/29 07:27:04;;;;;;;92.93;59.80;;;;;;;19.85;100.00;101104.56;5203142;28;20490;-68
2021/06/29 07:29:36;;;;;;;80.05;53.95;;;;;;;19.84;100.00;101097.59;5185254;28;20561;-68
2021/06/29 07:32:08;;;;;;;73.03;49.43;;;;;;;19.90;99.17;101100.34;5200767;28;20037;-68
2021/06/29 07:34:39;;;;;;;67.90;46.77;;;;;;;19.98;98.43;101094.13;5200517;28;20061;-68
2021/06/29 07:37:11;;;;;;;67.77;48.13;;;;;;;20.04;99.93;101096.03;5200374;28;20277;-68
2021/06/29 07:39:42;;;;;;;62.83;46.47;;;;;;;20.12;98.80;101082.63;5202001;28;20029;-68
2021/06/29 07:42:13;;;;;;;70.57;47.37;;;;;;;20.27;99.54;101090.56;5199835;28;20030;-68
2021/06/29 07:44:45;;;;;;;75.23;50.30;;;;;;;20.22;99.04;101084.16;5203462;28;20511;-68
2021/06/29 07:47:16;;;;;;;74.33;51.83;;;;;;;20.24;98.04;101087.47;5199987;28;20034;-68
2021/06/29 07:49:47;;;;;;;70.77;48.37;;;;;;;20.35;99.26;101097.63;5200691;28;20034;-68
2021/06/29 07:52:19;;;;;;;68.00;47.20;;;;;;;20.27;97.71;101103.88;5204094;28;20075;-68
2021/06/29 07:54:50;;;;;;;73.17;48.70;;;;;;;20.26;96.88;101104.06;5201819;28;20025;-68
2021/06/29 07:57:22;;;;;;;68.70;47.10;;;;;;;20.23;97.19;101109.75;5203559;28;20352;-68
2021/06/29 07:59:53;;;;;;;70.77;46.73;;;;;;;20.12;96.69;101106.56;5198749;28;20037;-68
2021/06/29 08:02:27;;;;;;;68.80;46.17;;;;;;;20.24;97.51;101114.06;5195202;28;20042;-68
2021/06/29 08:04:59;;;;;;;64.70;44.90;;;;;;;20.33;97.51;101103.13;5199932;28;20026;-68
2021/06/29 08:07:30;;;;;;;66.47;46.57;;;;;;;20.37;96.99;101100.91;5198375;28;20030;-68
2021/06/29 08:10:05;;;;;;;61.67;44.50;;;;;;;20.32;95.08;101113.97;5204668;28;20116;-68
2021/06/29 08:12:37;;;;;;;57.90;42.78;;;;;;;20.27;94.92;101114.53;5197067;28;20498;-68
2021/06/29 08:15:09;;;;;;;63.10;44.43;;;;;;;20.15;93.75;101105.34;5180713;28;20018;-68
2021/06/29 08:17:43;;;;;;;62.30;45.20;;;;;;;20.32;94.10;101117.44;5198282;28;20054;-68
2021/06/29 08:20:16;;;;;;;63.97;47.65;;;;;;;20.26;94.80;101115.50;5198313;28;20496;-68
2021/06/29 08:22:50;;;;;;;67.38;50.40;;;;;;;20.30;94.19;101110.66;5198652;28;20040;-68
2021/06/29 08:25:23;;;;;;;67.15;51.88;;;;;;;20.38;94.48;101110.53;5200615;28;20109;-68
2021/06/29 08:27:55;;;;;;;76.70;56.38;;;;;;;20.42;94.95;101109.97;5201836;28;20028;-68
2021/06/29 08:30:27;;;;;;;73.07;54.93;;;;;;;20.61;94.24;101110.41;5198544;28;20026;-68
2021/06/29 08:32:58;;;;;;;74.33;56.47;;;;;;;20.67;92.93;101108.81;5201629;28;20060;-68
2021/06/29 08:35:29;;;;;;;74.40;56.20;;;;;;;20.70;93.42;101108.44;5196342;28;20042;-69
2021/06/29 08:38:01;;;;;;;69.93;53.40;;;;;;;20.78;93.07;101118.97;5202009;28;20550;-69
2021/06/29 08:40:37;;;;;;;74.83;53.53;;;;;;;20.79;92.22;101117.94;5201310;28;20112;-69
2021/06/29 08:43:10;;;;;;;68.35;53.70;;;;;;;20.69;91.44;101122.78;5199536;28;20946;-69
2021/06/29 08:45:42;;;;;;;71.93;55.03;;;;;;;20.74;90.15;101115.03;5199518;28;20357;-69
2021/06/29 08:48:13;;;;;;;71.77;53.87;;;;;;;21.06;92.86;101109.19;5198694;28;20037;-69
2021/06/29 08:50:45;;;;;;;67.67;52.10;;;;;;;21.21;92.03;101116.25;5198919;28;20053;-69
2021/06/29 08:53:16;;;;;;;70.73;52.30;;;;;;;21.24;89.30;101110.53;5199120;28;20030;-69
2021/06/29 08:55:50;;;;;;;67.07;52.43;;;;;;;21.34;90.08;101105.72;5201610;28;20049;-69
2021/06/29 08:58:22;;;;;;;73.93;55.38;;;;;;;21.29;90.19;101113.44;5196828;28;20113;-69
2021/06/29 09:00:55;;;;;;;69.72;53.42;;;;;;;21.28;87.81;101119.78;5191036;28;20022;-69
2021/06/29 09:03:27;;;;;;;72.38;55.55;;;;;;;21.43;89.55;101114.41;5203332;28;20036;-70
2021/06/29 09:05:58;;;;;;;71.60;54.13;;;;;;;21.46;88.70;101122.81;5201147;28;20026;-69
2021/06/29 09:08:40;;;;;;;71.97;53.63;;;;;;;21.52;87.75;101121.25;5198874;28;20027;-69
2021/06/29 09:11:17;;;;;;;69.45;53.92;;;;;;;21.49;88.27;101121.63;5199491;28;20195;-71
2021/06/29 09:14:02;;;;;;;70.47;55.40;;;;;;;21.44;89.06;101118.69;5200875;28;20026;-69
2021/06/29 09:16:33;;;;;;;74.88;57.38;;;;;;;21.26;88.74;101117.34;5201609;28;20081;-69
2021/06/29 09:19:04;;;;;;;70.67;53.70;;;;;;;21.39;88.47;101119.28;5200185;28;20327;-68
2021/06/29 09:21:36;;;;;;;67.80;54.70;;;;;;;21.35;87.00;101110.84;5182598;28;20556;-69
2021/06/29 09:24:07;;;;;;;70.53;53.53;;;;;;;21.39;88.35;101111.28;5200596;28;20046;-69
2021/06/29 09:26:40;;;;;;;71.47;55.00;;;;;;;21.57;88.74;101116.13;5197559;28;20018;-69
2021/06/29 09:29:12;;;;;;;;;;;;;;;21.82;88.28;101114.63;5199782;28;20034;-70
2021/06/29 09:31:45;;;;;;;71.83;54.87;;;;;;;21.73;86.13;101129.16;5201693;28;19914;-68
2021/06/29 09:34:17;;;;;;;69.88;53.20;;;;;;;21.66;86.72;101122.94;5198077;28;20025;-69
2021/06/29 09:36:48;;;;;;;73.13;57.85;;;;;;;21.68;87.01;101112.91;5201321;28;20467;-68
2021/06/29 09:39:19;;;;;;;71.07;54.20;;;;;;;21.77;85.58;101118.91;5199269;28;20026;-69
2021/06/29 09:42:01;;;;;;;70.90;54.37;;;;;;;21.91;86.59;101125.16;5194820;28;20255;-69
2021/06/29 09:44:36;;;;;;;67.40;53.17;;;;;;;21.92;86.18;101130.28;5200980;28;20034;-68
2021/06/29 09:47:29;;;;;;;67.68;54.08;;;;;;;22.34;85.09;101123.06;5198770;28;20022;-69
2021/06/29 09:50:03;;;;;;;67.15;53.50;;;;;;;22.29;84.19;101128.19;5199626;28;20032;-68
2021/06/29 09:52:34;;;;;;;67.72;54.03;;;;;;;22.55;82.94;101120.25;5197646;28;20037;-68
2021/06/29 09:55:06;;;;;;;67.13;54.73;;;;;;;22.80;83.08;101117.00;5200410;28;20403;-69
2021/06/29 09:57:37;;;;;;;65.00;52.43;;;;;;;22.74;82.25;101123.19;5196224;28;20474;-69
2021/06/29 10:00:09;;;;;;;64.77;53.57;;;;;;;22.67;81.69;101119.66;5198893;28;20037;-68
2021/06/29 10:02:41;;;;;;;68.32;55.38;;;;;;;22.85;82.11;101132.44;5200619;28;20037;-69
2021/06/29 10:05:24;;;;;;;67.85;54.03;;;;;;;22.86;81.59;101129.56;5200849;28;20026;-68
2021/06/29 10:07:56;;;;;;;62.17;52.15;;;;;;;23.13;81.39;101135.75;5201413;28;20395;-69
2021/06/29 10:10:27;;;;;;;68.13;54.70;;;;;;;23.07;79.92;101139.28;5200703;28;20029;-68
2021/06/29 10:13:21;;;;;;;64.37;52.77;;;;;;;23.17;81.84;101141.53;5200272;28;20037;-68
2021/06/29 10:15:52;;;;;;;66.07;53.45;;;;;;;23.37;80.79;101133.47;5195124;28;20052;-69
2021/06/29 10:18:24;;;;;;;58.93;48.27;;;;;;;23.36;76.60;101139.88;5222824;22;20058;-66
2021/06/29 10:20:59;;;;;;;56.70;46.50;;;;;;;23.19;75.48;101136.81;5203440;28;20087;-66
2021/06/29 10:23:30;;;;;;;54.03;44.33;;;;;;;23.31;76.58;101124.44;5210718;28;20076;-66
2021/06/29 10:26:05;;;;;;;53.33;42.80;;;;;;;23.60;76.97;101127.69;5212189;28;20022;-66
2021/06/29 10:28:37;;;;;;;47.80;38.03;;;;;;;23.67;75.41;101125.84;5214159;28;20022;-66
2021/06/29 10:31:09;;;;;;;;;;;;;;;24.14;77.42;101121.19;5194288;28;20030;-66
2021/06/29 10:33:40;;;;;;;47.63;38.70;;;;;;;23.97;76.71;101118.13;5211988;28;19909;-66
2021/06/29 10:36:12;;;;;;;49.43;41.53;;;;;;;23.86;74.98;101121.47;5210747;28;20026;-66
2021/06/29 10:38:44;;;;;;;50.63;43.70;;;;;;;23.99;76.50;101118.75;5212627;28;20030;-66
2021/06/29 10:41:21;;;;;;;47.53;41.53;;;;;;;24.28;77.04;101118.22;5211192;28;20283;-66
2021/06/29 10:43:53;;;;;;;41.67;35.88;;;;;;;24.23;72.43;101117.22;5210597;28;20403;-66
2021/06/29 10:46:27;;;;;;;43.13;37.10;;;;;;;24.06;72.27;101116.06;5194033;28;20470;-66
2021/06/29 10:49:26;;;;;;;36.22;31.02;;;;;;;24.30;73.12;101109.97;5207256;28;20430;-67
2021/06/29 10:52:02;;;;;;;29.90;26.52;;;;;;;24.19;70.17;101116.00;5206627;28;20018;-66
2021/06/29 10:54:39;;;;;;;28.80;23.33;;;;;;;24.26;70.90;101111.44;5211339;28;20032;-66
2021/06/29 10:57:13;;;;;;;29.35;26.05;;;;;;;24.27;71.40;101105.03;5208422;28;20076;-66
2021/06/29 10:59:49;;;;;;;25.60;22.77;;;;;;;24.44;71.05;101105.41;5204955;28;20142;-67
2021/06/29 11:02:34;;;;;;;27.40;22.85;;;;;;;24.63;71.10;101091.06;5211560;28;20030;-66
2021/06/29 11:05:08;;;;;;;25.38;22.60;;;;;;;24.59;70.18;101089.03;5210023;28;20076;-67
2021/06/29 11:07:42;;;;;;;20.02;17.90;;;;;;;24.75;69.08;101094.66;5211957;28;20028;-66
2021/06/29 11:10:30;;;;;;;21.65;18.70;;;;;;;24.84;69.96;101086.34;5210746;28;20118;-66
2021/06/29 11:13:03;;;;;;;19.17;17.08;;;;;;;24.90;68.22;101074.75;5208035;28;20018;-66
2021/06/29 11:15:40;;;;;;;18.00;15.55;;;;;;;25.05;69.63;101071.75;5192523;28;20030;-66
2021/06/29 11:18:13;;;;;;;18.92;16.85;;;;;;;25.04;65.06;101067.41;5196117;28;20084;-66
2021/06/29 11:20:54;;;;;;;17.45;14.70;;;;;;;25.12;66.32;101069.88;5210557;28;20394;-66
2021/06/29 11:23:26;;;;;;;17.80;15.95;;;;;;;25.11;64.94;101073.56;5212566;28;20614;-68
2021/06/29 11:26:15;;;;;;;18.27;16.30;;;;;;;25.32;66.82;101062.44;5213341;28;20017;-68
2021/06/29 11:28:50;;;;;;;17.48;15.68;;;;;;;25.33;66.92;101064.06;5212451;28;20560;-68
2021/06/29 11:31:22;;;;;;;15.82;14.15;;;;;;;25.13;64.52;101060.78;5213177;28;20021;-70
2021/06/29 11:34:03;;;;;;;14.30;12.80;;;;;;;25.25;64.34;101056.31;5212268;28;20037;-68